Arthur City, Texas
Current Conditions -  °F | °C
As of 2:55 PM on Saturday 22 Nov 2014 (Local Time) from KHHW Reporting Station
Overcast Overcast  
Wind Chill: 62°   Ceiling: 3100
Heat Index: 62°   Visibility: 10mi
Dew Point: 55°   Wind: 8mph
Humidity: 80%   Direction: 70°ENE
Pressure: 29.92"   Gusts: NA
Location:  33.87°N, 95.51°W
Report Text: KHHW 222055Z AUTO 07007KT 10SM SCT024 BKN031 OVC110 16/13 A2992 RMK AO2 LTG DSNT S AND SW T01640129
Loading
Personal Weather Stations






























Interactive Weather Map New forecast layout! Learn more

10-Day Weather Forecast

Advertisements
Track Severe Weather on mobile